sensor_id;sensor_type;location;lat;lon;timestamp;P1;durP1;ratioP1;P2;durP2;ratioP2
7199;SDS011;3641;49.082;8.200;2023-05-07T00:02:23;6.75;;;3.90;;
7199;SDS011;3641;49.082;8.200;2023-05-07T00:04:50;9.77;;;4.32;;
7199;SDS011;3641;49.082;8.200;2023-05-07T00:07:17;6.75;;;3.88;;
7199;SDS011;3641;49.082;8.200;2023-05-07T00:09:43;6.22;;;3.22;;
7199;SDS011;3641;49.082;8.200;2023-05-07T00:12:10;7.07;;;3.97;;
7199;SDS011;3641;49.082;8.200;2023-05-07T00:14:36;8.70;;;3.97;;
7199;SDS011;3641;49.082;8.200;2023-05-07T00:17:04;6.65;;;3.92;;
7199;SDS011;3641;49.082;8.200;2023-05-07T00:19:30;7.45;;;4.13;;
7199;SDS011;3641;49.082;8.200;2023-05-07T00:21:57;9.63;;;4.10;;
7199;SDS011;3641;49.082;8.200;2023-05-07T00:24:24;7.32;;;4.28;;
7199;SDS011;3641;49.082;8.200;2023-05-07T00:26:50;7.45;;;4.50;;
7199;SDS011;3641;49.082;8.200;2023-05-07T00:29:17;8.90;;;4.50;;
7199;SDS011;3641;49.082;8.200;2023-05-07T00:31:44;7.40;;;4.78;;
7199;SDS011;3641;49.082;8.200;2023-05-07T00:34:12;11.82;;;4.90;;
7199;SDS011;3641;49.082;8.200;2023-05-07T00:36:38;7.68;;;4.53;;
7199;SDS011;3641;49.082;8.200;2023-05-07T00:39:05;9.63;;;4.43;;
7199;SDS011;3641;49.082;8.200;2023-05-07T00:41:31;7.35;;;4.10;;
7199;SDS011;3641;49.082;8.200;2023-05-07T00:43:58;7.95;;;3.80;;
7199;SDS011;3641;49.082;8.200;2023-05-07T00:46:25;7.38;;;4.10;;
7199;SDS011;3641;49.082;8.200;2023-05-07T00:48:52;7.95;;;4.45;;
7199;SDS011;3641;49.082;8.200;2023-05-07T00:51:21;7.13;;;4.50;;
7199;SDS011;3641;49.082;8.200;2023-05-07T00:53:48;12.55;;;4.55;;
7199;SDS011;3641;49.082;8.200;2023-05-07T00:56:14;9.77;;;4.72;;
7199;SDS011;3641;49.082;8.200;2023-05-07T00:58:42;7.40;;;4.38;;
7199;SDS011;3641;49.082;8.200;2023-05-07T01:01:08;8.52;;;3.92;;
7199;SDS011;3641;49.082;8.200;2023-05-07T01:03:35;7.47;;;4.32;;
7199;SDS011;3641;49.082;8.200;2023-05-07T01:06:01;7.82;;;3.95;;
7199;SDS011;3641;49.082;8.200;2023-05-07T01:08:31;8.35;;;3.80;;
7199;SDS011;3641;49.082;8.200;2023-05-07T01:11:00;7.43;;;4.07;;
7199;SDS011;3641;49.082;8.200;2023-05-07T01:13:26;7.30;;;4.28;;
7199;SDS011;3641;49.082;8.200;2023-05-07T01:15:54;9.57;;;4.43;;
7199;SDS011;3641;49.082;8.200;2023-05-07T01:18:20;6.85;;;4.15;;
7199;SDS011;3641;49.082;8.200;2023-05-07T01:20:47;8.32;;;3.97;;
7199;SDS011;3641;49.082;8.200;2023-05-07T01:23:15;8.85;;;4.93;;
7199;SDS011;3641;49.082;8.200;2023-05-07T01:25:41;7.57;;;4.35;;
7199;SDS011;3641;49.082;8.200;2023-05-07T01:28:08;9.68;;;4.28;;
7199;SDS011;3641;49.082;8.200;2023-05-07T01:30:34;7.32;;;4.07;;
7199;SDS011;3641;49.082;8.200;2023-05-07T01:33:02;8.60;;;4.50;;
7199;SDS011;3641;49.082;8.200;2023-05-07T01:35:34;7.00;;;4.03;;
7199;SDS011;3641;49.082;8.200;2023-05-07T01:38:04;9.00;;;4.18;;
7199;SDS011;3641;49.082;8.200;2023-05-07T01:40:33;8.40;;;3.83;;
7199;SDS011;3641;49.082;8.200;2023-05-07T01:43:00;8.98;;;4.35;;
7199;SDS011;3641;49.082;8.200;2023-05-07T01:45:28;7.13;;;4.13;;
7199;SDS011;3641;49.082;8.200;2023-05-07T01:47:55;8.35;;;3.97;;
7199;SDS011;3641;49.082;8.200;2023-05-07T01:50:22;7.15;;;3.78;;
7199;SDS011;3641;49.082;8.200;2023-05-07T01:52:50;8.13;;;3.78;;
7199;SDS011;3641;49.082;8.200;2023-05-07T01:55:16;5.55;;;3.60;;
7199;SDS011;3641;49.082;8.200;2023-05-07T01:57:44;9.27;;;4.20;;
7199;SDS011;3641;49.082;8.200;2023-05-07T02:00:11;10.35;;;4.50;;
7199;SDS011;3641;49.082;8.200;2023-05-07T02:02:38;5.85;;;4.35;;
7199;SDS011;3641;49.082;8.200;2023-05-07T02:05:05;7.07;;;4.55;;
7199;SDS011;3641;49.082;8.200;2023-05-07T02:07:32;10.35;;;4.13;;
7199;SDS011;3641;49.082;8.200;2023-05-07T02:09:58;6.35;;;3.88;;
7199;SDS011;3641;49.082;8.200;2023-05-07T02:12:25;7.25;;;3.70;;
7199;SDS011;3641;49.082;8.200;2023-05-07T02:14:52;6.45;;;4.07;;
7199;SDS011;3641;49.082;8.200;2023-05-07T02:17:19;6.43;;;4.10;;
7199;SDS011;3641;49.082;8.200;2023-05-07T02:19:46;6.88;;;3.90;;
7199;SDS011;3641;49.082;8.200;2023-05-07T02:22:12;6.88;;;3.97;;
7199;SDS011;3641;49.082;8.200;2023-05-07T02:24:39;6.88;;;4.15;;
7199;SDS011;3641;49.082;8.200;2023-05-07T02:27:05;6.40;;;3.78;;
7199;SDS011;3641;49.082;8.200;2023-05-07T02:29:32;5.55;;;3.80;;
7199;SDS011;3641;49.082;8.200;2023-05-07T02:31:59;6.55;;;3.72;;
7199;SDS011;3641;49.082;8.200;2023-05-07T02:34:26;7.45;;;3.92;;
7199;SDS011;3641;49.082;8.200;2023-05-07T02:36:52;7.70;;;4.40;;
7199;SDS011;3641;49.082;8.200;2023-05-07T02:39:19;5.68;;;3.90;;
7199;SDS011;3641;49.082;8.200;2023-05-07T02:41:45;8.07;;;4.30;;
7199;SDS011;3641;49.082;8.200;2023-05-07T02:44:12;6.25;;;3.85;;
7199;SDS011;3641;49.082;8.200;2023-05-07T02:46:38;6.70;;;4.30;;
7199;SDS011;3641;49.082;8.200;2023-05-07T02:49:06;10.13;;;5.50;;
7199;SDS011;3641;49.082;8.200;2023-05-07T02:51:32;10.00;;;5.38;;
7199;SDS011;3641;49.082;8.200;2023-05-07T02:53:59;7.15;;;5.05;;
7199;SDS011;3641;49.082;8.200;2023-05-07T02:56:26;8.30;;;4.68;;
7199;SDS011;3641;49.082;8.200;2023-05-07T02:58:53;8.27;;;4.57;;
7199;SDS011;3641;49.082;8.200;2023-05-07T03:01:19;7.53;;;4.50;;
7199;SDS011;3641;49.082;8.200;2023-05-07T03:03:46;6.82;;;4.82;;
7199;SDS011;3641;49.082;8.200;2023-05-07T03:06:13;8.27;;;4.60;;
7199;SDS011;3641;49.082;8.200;2023-05-07T03:08:40;9.10;;;4.72;;
7199;SDS011;3641;49.082;8.200;2023-05-07T03:11:06;7.68;;;4.90;;
7199;SDS011;3641;49.082;8.200;2023-05-07T03:13:33;7.10;;;4.53;;
7199;SDS011;3641;49.082;8.200;2023-05-07T03:15:59;7.90;;;4.78;;
7199;SDS011;3641;49.082;8.200;2023-05-07T03:18:26;6.38;;;4.65;;
7199;SDS011;3641;49.082;8.200;2023-05-07T03:20:52;10.85;;;4.97;;
7199;SDS011;3641;49.082;8.200;2023-05-07T03:23:20;9.68;;;4.45;;
7199;SDS011;3641;49.082;8.200;2023-05-07T03:25:47;8.65;;;4.90;;
7199;SDS011;3641;49.082;8.200;2023-05-07T03:28:13;7.95;;;4.60;;
7199;SDS011;3641;49.082;8.200;2023-05-07T03:30:39;9.23;;;4.45;;
7199;SDS011;3641;49.082;8.200;2023-05-07T03:33:06;7.47;;;4.90;;
7199;SDS011;3641;49.082;8.200;2023-05-07T03:35:32;8.43;;;4.70;;
7199;SDS011;3641;49.082;8.200;2023-05-07T03:37:59;8.32;;;4.65;;
7199;SDS011;3641;49.082;8.200;2023-05-07T03:40:28;7.75;;;4.70;;
7199;SDS011;3641;49.082;8.200;2023-05-07T03:42:55;8.82;;;4.75;;
7199;SDS011;3641;49.082;8.200;2023-05-07T03:45:21;7.22;;;4.90;;
7199;SDS011;3641;49.082;8.200;2023-05-07T03:47:48;7.65;;;4.68;;
7199;SDS011;3641;49.082;8.200;2023-05-07T03:50:14;8.90;;;5.15;;
7199;SDS011;3641;49.082;8.200;2023-05-07T03:52:41;8.52;;;4.90;;
7199;SDS011;3641;49.082;8.200;2023-05-07T03:55:08;9.30;;;5.10;;
7199;SDS011;3641;49.082;8.200;2023-05-07T03:57:36;7.30;;;4.93;;
7199;SDS011;3641;49.082;8.200;2023-05-07T04:00:03;7.95;;;5.07;;
7199;SDS011;3641;49.082;8.200;2023-05-07T04:02:30;8.05;;;4.85;;
7199;SDS011;3641;49.082;8.200;2023-05-07T04:04:57;9.55;;;4.97;;
7199;SDS011;3641;49.082;8.200;2023-05-07T04:07:23;7.57;;;4.75;;
7199;SDS011;3641;49.082;8.200;2023-05-07T04:09:50;9.50;;;5.25;;
7199;SDS011;3641;49.082;8.200;2023-05-07T04:12:16;8.70;;;5.15;;
7199;SDS011;3641;49.082;8.200;2023-05-07T04:14:44;9.18;;;4.95;;
7199;SDS011;3641;49.082;8.200;2023-05-07T04:17:10;9.80;;;5.25;;
7199;SDS011;3641;49.082;8.200;2023-05-07T04:19:37;7.93;;;4.32;;
7199;SDS011;3641;49.082;8.200;2023-05-07T04:22:03;7.80;;;4.50;;
7199;SDS011;3641;49.082;8.200;2023-05-07T04:24:31;7.50;;;4.85;;
7199;SDS011;3641;49.082;8.200;2023-05-07T04:26:58;6.80;;;4.43;;
7199;SDS011;3641;49.082;8.200;2023-05-07T04:29:24;7.60;;;4.38;;
7199;SDS011;3641;49.082;8.200;2023-05-07T04:31:52;7.20;;;4.50;;
7199;SDS011;3641;49.082;8.200;2023-05-07T04:34:20;6.78;;;4.55;;
7199;SDS011;3641;49.082;8.200;2023-05-07T04:36:47;6.57;;;4.28;;
7199;SDS011;3641;49.082;8.200;2023-05-07T04:39:13;8.25;;;4.47;;
7199;SDS011;3641;49.082;8.200;2023-05-07T04:41:40;7.22;;;4.25;;
7199;SDS011;3641;49.082;8.200;2023-05-07T04:44:06;6.28;;;4.28;;
7199;SDS011;3641;49.082;8.200;2023-05-07T04:46:34;7.65;;;4.57;;
7199;SDS011;3641;49.082;8.200;2023-05-07T04:49:02;8.18;;;4.25;;
7199;SDS011;3641;49.082;8.200;2023-05-07T04:51:28;11.18;;;4.40;;
7199;SDS011;3641;49.082;8.200;2023-05-07T04:53:57;8.18;;;4.43;;
7199;SDS011;3641;49.082;8.200;2023-05-07T04:56:24;7.93;;;4.40;;
7199;SDS011;3641;49.082;8.200;2023-05-07T04:58:53;7.90;;;4.40;;
7199;SDS011;3641;49.082;8.200;2023-05-07T05:01:19;6.97;;;4.20;;
7199;SDS011;3641;49.082;8.200;2023-05-07T05:03:46;9.48;;;5.00;;
7199;SDS011;3641;49.082;8.200;2023-05-07T05:06:13;8.93;;;4.40;;
7199;SDS011;3641;49.082;8.200;2023-05-07T05:08:40;6.30;;;4.07;;
7199;SDS011;3641;49.082;8.200;2023-05-07T05:11:06;7.60;;;4.25;;
7199;SDS011;3641;49.082;8.200;2023-05-07T05:13:33;6.78;;;3.83;;
7199;SDS011;3641;49.082;8.200;2023-05-07T05:15:59;11.45;;;4.57;;
7199;SDS011;3641;49.082;8.200;2023-05-07T05:18:26;8.05;;;4.00;;
7199;SDS011;3641;49.082;8.200;2023-05-07T05:20:52;9.05;;;4.43;;
7199;SDS011;3641;49.082;8.200;2023-05-07T05:23:20;7.88;;;4.22;;
7199;SDS011;3641;49.082;8.200;2023-05-07T05:25:46;5.05;;;4.00;;
7199;SDS011;3641;49.082;8.200;2023-05-07T05:28:13;5.78;;;4.18;;
7199;SDS011;3641;49.082;8.200;2023-05-07T05:30:39;6.45;;;4.28;;
7199;SDS011;3641;49.082;8.200;2023-05-07T05:33:06;7.63;;;4.25;;
7199;SDS011;3641;49.082;8.200;2023-05-07T05:35:32;8.40;;;4.78;;
7199;SDS011;3641;49.082;8.200;2023-05-07T05:38:00;9.40;;;4.45;;
7199;SDS011;3641;49.082;8.200;2023-05-07T05:40:28;7.38;;;3.97;;
7199;SDS011;3641;49.082;8.200;2023-05-07T05:42:54;8.38;;;4.50;;
7199;SDS011;3641;49.082;8.200;2023-05-07T05:45:21;7.18;;;4.20;;
7199;SDS011;3641;49.082;8.200;2023-05-07T05:47:47;6.75;;;4.20;;
7199;SDS011;3641;49.082;8.200;2023-05-07T05:50:14;6.30;;;3.85;;
7199;SDS011;3641;49.082;8.200;2023-05-07T05:52:40;8.43;;;4.28;;
7199;SDS011;3641;49.082;8.200;2023-05-07T05:55:07;6.93;;;4.55;;
7199;SDS011;3641;49.082;8.200;2023-05-07T05:57:36;8.77;;;5.47;;
7199;SDS011;3641;49.082;8.200;2023-05-07T06:00:02;9.65;;;4.25;;
7199;SDS011;3641;49.082;8.200;2023-05-07T06:02:30;8.38;;;4.20;;
7199;SDS011;3641;49.082;8.200;2023-05-07T06:04:56;8.13;;;4.40;;
7199;SDS011;3641;49.082;8.200;2023-05-07T06:07:23;7.40;;;4.28;;
7199;SDS011;3641;49.082;8.200;2023-05-07T06:09:49;7.03;;;4.47;;
7199;SDS011;3641;49.082;8.200;2023-05-07T06:12:16;7.88;;;4.47;;
7199;SDS011;3641;49.082;8.200;2023-05-07T06:14:43;6.68;;;4.10;;
7199;SDS011;3641;49.082;8.200;2023-05-07T06:17:10;7.10;;;4.00;;
7199;SDS011;3641;49.082;8.200;2023-05-07T06:19:36;7.75;;;3.97;;
7199;SDS011;3641;49.082;8.200;2023-05-07T06:22:03;6.20;;;3.58;;
7199;SDS011;3641;49.082;8.200;2023-05-07T06:24:29;6.63;;;4.32;;
7199;SDS011;3641;49.082;8.200;2023-05-07T06:26:56;6.53;;;4.10;;
7199;SDS011;3641;49.082;8.200;2023-05-07T06:29:23;6.60;;;3.47;;
7199;SDS011;3641;49.082;8.200;2023-05-07T06:31:52;6.10;;;3.85;;
7199;SDS011;3641;49.082;8.200;2023-05-07T06:34:18;6.88;;;4.13;;
7199;SDS011;3641;49.082;8.200;2023-05-07T06:36:45;9.70;;;4.20;;
7199;SDS011;3641;49.082;8.200;2023-05-07T06:39:11;6.40;;;3.80;;
7199;SDS011;3641;49.082;8.200;2023-05-07T06:41:38;6.70;;;4.07;;
7199;SDS011;3641;49.082;8.200;2023-05-07T06:44:04;8.35;;;3.88;;
7199;SDS011;3641;49.082;8.200;2023-05-07T06:46:31;5.28;;;3.60;;
7199;SDS011;3641;49.082;8.200;2023-05-07T06:48:59;6.32;;;3.63;;
7199;SDS011;3641;49.082;8.200;2023-05-07T06:51:28;7.00;;;3.47;;
7199;SDS011;3641;49.082;8.200;2023-05-07T06:53:55;5.65;;;3.83;;
7199;SDS011;3641;49.082;8.200;2023-05-07T06:56:22;6.47;;;3.33;;
7199;SDS011;3641;49.082;8.200;2023-05-07T06:58:48;5.00;;;3.70;;
7199;SDS011;3641;49.082;8.200;2023-05-07T07:01:15;5.97;;;3.50;;
7199;SDS011;3641;49.082;8.200;2023-05-07T07:03:41;6.28;;;3.47;;
7199;SDS011;3641;49.082;8.200;2023-05-07T07:06:09;5.93;;;3.75;;
7199;SDS011;3641;49.082;8.200;2023-05-07T07:08:36;8.60;;;3.60;;
7199;SDS011;3641;49.082;8.200;2023-05-07T07:11:03;5.53;;;3.63;;
7199;SDS011;3641;49.082;8.200;2023-05-07T07:13:30;8.48;;;3.33;;
7199;SDS011;3641;49.082;8.200;2023-05-07T07:15:56;6.90;;;3.58;;
7199;SDS011;3641;49.082;8.200;2023-05-07T07:18:23;5.85;;;3.60;;
7199;SDS011;3641;49.082;8.200;2023-05-07T07:20:49;5.90;;;3.75;;
7199;SDS011;3641;49.082;8.200;2023-05-07T07:23:17;7.50;;;3.20;;
7199;SDS011;3641;49.082;8.200;2023-05-07T07:25:44;5.85;;;3.47;;
7199;SDS011;3641;49.082;8.200;2023-05-07T07:28:10;5.28;;;3.10;;
7199;SDS011;3641;49.082;8.200;2023-05-07T07:30:37;5.40;;;3.35;;
7199;SDS011;3641;49.082;8.200;2023-05-07T07:33:04;4.15;;;2.65;;
7199;SDS011;3641;49.082;8.200;2023-05-07T07:35:31;5.43;;;2.83;;
7199;SDS011;3641;49.082;8.200;2023-05-07T07:37:57;9.05;;;3.20;;
7199;SDS011;3641;49.082;8.200;2023-05-07T07:40:25;5.75;;;3.53;;
7199;SDS011;3641;49.082;8.200;2023-05-07T07:42:52;7.00;;;3.08;;
7199;SDS011;3641;49.082;8.200;2023-05-07T07:45:19;5.60;;;2.85;;
7199;SDS011;3641;49.082;8.200;2023-05-07T07:47:46;7.13;;;2.63;;
7199;SDS011;3641;49.082;8.200;2023-05-07T07:50:12;8.70;;;2.88;;
7199;SDS011;3641;49.082;8.200;2023-05-07T07:52:39;6.82;;;3.00;;
7199;SDS011;3641;49.082;8.200;2023-05-07T07:55:06;5.78;;;3.00;;
7199;SDS011;3641;49.082;8.200;2023-05-07T07:57:34;6.88;;;3.20;;
7199;SDS011;3641;49.082;8.200;2023-05-07T08:00:01;5.15;;;2.85;;
7199;SDS011;3641;49.082;8.200;2023-05-07T08:02:27;5.63;;;3.30;;
7199;SDS011;3641;49.082;8.200;2023-05-07T08:04:54;5.07;;;3.25;;
7199;SDS011;3641;49.082;8.200;2023-05-07T08:07:20;5.03;;;3.03;;
7199;SDS011;3641;49.082;8.200;2023-05-07T08:09:47;5.40;;;3.22;;
7199;SDS011;3641;49.082;8.200;2023-05-07T08:12:14;7.00;;;2.65;;
7199;SDS011;3641;49.082;8.200;2023-05-07T08:14:42;9.10;;;2.75;;
7199;SDS011;3641;49.082;8.200;2023-05-07T08:17:08;3.90;;;2.58;;
7199;SDS011;3641;49.082;8.200;2023-05-07T08:19:35;5.22;;;2.95;;
7199;SDS011;3641;49.082;8.200;2023-05-07T08:22:02;4.70;;;2.78;;
7199;SDS011;3641;49.082;8.200;2023-05-07T08:24:29;6.03;;;2.92;;
7199;SDS011;3641;49.082;8.200;2023-05-07T08:26:55;4.55;;;2.40;;
7199;SDS011;3641;49.082;8.200;2023-05-07T08:29:22;4.78;;;2.83;;
7199;SDS011;3641;49.082;8.200;2023-05-07T08:31:49;4.85;;;3.22;;
7199;SDS011;3641;49.082;8.200;2023-05-07T08:34:16;4.70;;;3.22;;
7199;SDS011;3641;49.082;8.200;2023-05-07T08:36:42;6.07;;;2.63;;
7199;SDS011;3641;49.082;8.200;2023-05-07T08:39:09;4.95;;;2.90;;
7199;SDS011;3641;49.082;8.200;2023-05-07T08:41:35;4.30;;;2.55;;
7199;SDS011;3641;49.082;8.200;2023-05-07T08:44:02;5.25;;;2.65;;
7199;SDS011;3641;49.082;8.200;2023-05-07T08:46:30;5.88;;;3.50;;
7199;SDS011;3641;49.082;8.200;2023-05-07T08:48:59;5.45;;;2.80;;
7199;SDS011;3641;49.082;8.200;2023-05-07T08:51:26;6.30;;;2.85;;
7199;SDS011;3641;49.082;8.200;2023-05-07T08:53:52;4.70;;;3.05;;
7199;SDS011;3641;49.082;8.200;2023-05-07T08:56:19;6.40;;;3.33;;
7199;SDS011;3641;49.082;8.200;2023-05-07T08:58:46;7.47;;;3.13;;
7199;SDS011;3641;49.082;8.200;2023-05-07T09:01:14;4.13;;;3.10;;
7199;SDS011;3641;49.082;8.200;2023-05-07T09:03:42;4.85;;;3.22;;
7199;SDS011;3641;49.082;8.200;2023-05-07T09:06:13;5.63;;;3.17;;
7199;SDS011;3641;49.082;8.200;2023-05-07T09:08:39;5.45;;;2.75;;
7199;SDS011;3641;49.082;8.200;2023-05-07T09:11:06;7.15;;;3.20;;
7199;SDS011;3641;49.082;8.200;2023-05-07T09:13:32;6.07;;;3.25;;
7199;SDS011;3641;49.082;8.200;2023-05-07T09:15:59;4.68;;;2.90;;
7199;SDS011;3641;49.082;8.200;2023-05-07T09:18:39;4.55;;;2.85;;
7199;SDS011;3641;49.082;8.200;2023-05-07T09:21:09;4.65;;;3.08;;
7199;SDS011;3641;49.082;8.200;2023-05-07T09:23:37;4.93;;;2.97;;
7199;SDS011;3641;49.082;8.200;2023-05-07T09:26:04;4.88;;;2.72;;
7199;SDS011;3641;49.082;8.200;2023-05-07T09:28:33;6.22;;;2.75;;
7199;SDS011;3641;49.082;8.200;2023-05-07T09:31:00;6.10;;;3.10;;
7199;SDS011;3641;49.082;8.200;2023-05-07T09:33:26;5.78;;;3.08;;
7199;SDS011;3641;49.082;8.200;2023-05-07T09:35:53;5.57;;;3.00;;
7199;SDS011;3641;49.082;8.200;2023-05-07T09:38:20;6.22;;;3.20;;
7199;SDS011;3641;49.082;8.200;2023-05-07T09:40:52;4.57;;;2.95;;
7199;SDS011;3641;49.082;8.200;2023-05-07T09:43:31;4.47;;;3.00;;
7199;SDS011;3641;49.082;8.200;2023-05-07T09:45:58;4.57;;;2.60;;
7199;SDS011;3641;49.082;8.200;2023-05-07T09:48:28;4.97;;;3.05;;
7199;SDS011;3641;49.082;8.200;2023-05-07T09:50:56;5.28;;;3.20;;
7199;SDS011;3641;49.082;8.200;2023-05-07T09:53:26;5.82;;;3.50;;
7199;SDS011;3641;49.082;8.200;2023-05-07T09:55:55;7.28;;;3.55;;
7199;SDS011;3641;49.082;8.200;2023-05-07T09:58:23;8.40;;;3.72;;
7199;SDS011;3641;49.082;8.200;2023-05-07T10:00:51;5.75;;;3.53;;
7199;SDS011;3641;49.082;8.200;2023-05-07T10:03:18;5.57;;;3.40;;
7199;SDS011;3641;49.082;8.200;2023-05-07T10:05:46;6.40;;;3.63;;
7199;SDS011;3641;49.082;8.200;2023-05-07T10:08:15;4.70;;;2.90;;
7199;SDS011;3641;49.082;8.200;2023-05-07T10:10:42;8.85;;;3.22;;
7199;SDS011;3641;49.082;8.200;2023-05-07T10:13:10;4.20;;;2.97;;
7199;SDS011;3641;49.082;8.200;2023-05-07T10:15:36;5.53;;;3.13;;
7199;SDS011;3641;49.082;8.200;2023-05-07T10:18:03;8.45;;;3.65;;
7199;SDS011;3641;49.082;8.200;2023-05-07T10:20:32;5.40;;;3.22;;
7199;SDS011;3641;49.082;8.200;2023-05-07T10:23:00;4.55;;;2.72;;
7199;SDS011;3641;49.082;8.200;2023-05-07T10:25:30;4.25;;;3.20;;
7199;SDS011;3641;49.082;8.200;2023-05-07T10:27:59;7.97;;;3.08;;
7199;SDS011;3641;49.082;8.200;2023-05-07T10:30:32;4.35;;;3.28;;
7199;SDS011;3641;49.082;8.200;2023-05-07T10:33:05;5.13;;;2.53;;
7199;SDS011;3641;49.082;8.200;2023-05-07T10:35:36;5.28;;;3.25;;
7199;SDS011;3641;49.082;8.200;2023-05-07T10:38:06;4.80;;;2.90;;
7199;SDS011;3641;49.082;8.200;2023-05-07T10:40:33;4.97;;;3.08;;
7199;SDS011;3641;49.082;8.200;2023-05-07T10:43:00;6.40;;;2.80;;
7199;SDS011;3641;49.082;8.200;2023-05-07T10:45:30;7.10;;;3.70;;
7199;SDS011;3641;49.082;8.200;2023-05-07T10:48:08;6.97;;;3.63;;
7199;SDS011;3641;49.082;8.200;2023-05-07T10:50:36;6.63;;;3.47;;
7199;SDS011;3641;49.082;8.200;2023-05-07T10:58:50;6.30;;;3.38;;
7199;SDS011;3641;49.082;8.200;2023-05-07T11:01:18;6.65;;;3.00;;
7199;SDS011;3641;49.082;8.200;2023-05-07T11:04:17;5.57;;;3.00;;
7199;SDS011;3641;49.082;8.200;2023-05-07T11:10:00;8.00;;;4.15;;
7199;SDS011;3641;49.082;8.200;2023-05-07T11:12:48;5.93;;;3.47;;
7199;SDS011;3641;49.082;8.200;2023-05-07T11:18:17;4.75;;;3.15;;
7199;SDS011;3641;49.082;8.200;2023-05-07T11:20:44;6.75;;;3.35;;
7199;SDS011;3641;49.082;8.200;2023-05-07T11:23:26;6.35;;;3.15;;
7199;SDS011;3641;49.082;8.200;2023-05-07T11:26:43;8.27;;;3.28;;
7199;SDS011;3641;49.082;8.200;2023-05-07T11:29:11;6.10;;;3.15;;
7199;SDS011;3641;49.082;8.200;2023-05-07T11:31:38;6.43;;;2.85;;
7199;SDS011;3641;49.082;8.200;2023-05-07T11:34:07;6.03;;;3.60;;
7199;SDS011;3641;49.082;8.200;2023-05-07T11:36:34;5.35;;;3.00;;
7199;SDS011;3641;49.082;8.200;2023-05-07T11:39:01;4.50;;;2.80;;
7199;SDS011;3641;49.082;8.200;2023-05-07T11:41:34;5.25;;;3.50;;
7199;SDS011;3641;49.082;8.200;2023-05-07T11:44:02;5.25;;;3.10;;
7199;SDS011;3641;49.082;8.200;2023-05-07T11:46:29;5.40;;;3.20;;
7199;SDS011;3641;49.082;8.200;2023-05-07T11:48:55;7.07;;;3.03;;
7199;SDS011;3641;49.082;8.200;2023-05-07T11:51:24;4.93;;;3.10;;
7199;SDS011;3641;49.082;8.200;2023-05-07T11:53:52;4.50;;;3.20;;
7199;SDS011;3641;49.082;8.200;2023-05-07T11:56:19;5.68;;;3.17;;
7199;SDS011;3641;49.082;8.200;2023-05-07T11:58:46;4.90;;;3.10;;
7199;SDS011;3641;49.082;8.200;2023-05-07T12:01:13;5.38;;;3.22;;
7199;SDS011;3641;49.082;8.200;2023-05-07T12:03:41;5.45;;;2.60;;
7199;SDS011;3641;49.082;8.200;2023-05-07T12:06:10;5.72;;;3.90;;
7199;SDS011;3641;49.082;8.200;2023-05-07T12:08:39;5.82;;;3.90;;
7199;SDS011;3641;49.082;8.200;2023-05-07T12:11:07;5.63;;;2.83;;
7199;SDS011;3641;49.082;8.200;2023-05-07T12:13:35;5.28;;;3.35;;
7199;SDS011;3641;49.082;8.200;2023-05-07T12:16:01;6.07;;;3.00;;
7199;SDS011;3641;49.082;8.200;2023-05-07T12:18:29;4.53;;;3.08;;
7199;SDS011;3641;49.082;8.200;2023-05-07T12:20:56;5.60;;;3.05;;
7199;SDS011;3641;49.082;8.200;2023-05-07T12:23:23;4.82;;;2.92;;
7199;SDS011;3641;49.082;8.200;2023-05-07T12:25:51;5.70;;;2.85;;
7199;SDS011;3641;49.082;8.200;2023-05-07T12:28:18;4.78;;;3.38;;
7199;SDS011;3641;49.082;8.200;2023-05-07T12:30:46;4.65;;;2.40;;
7199;SDS011;3641;49.082;8.200;2023-05-07T12:33:15;6.78;;;3.35;;
7199;SDS011;3641;49.082;8.200;2023-05-07T12:35:43;5.55;;;3.15;;
7199;SDS011;3641;49.082;8.200;2023-05-07T12:38:10;6.88;;;3.10;;
7199;SDS011;3641;49.082;8.200;2023-05-07T12:40:38;4.00;;;2.83;;
7199;SDS011;3641;49.082;8.200;2023-05-07T12:43:07;4.80;;;2.97;;
7199;SDS011;3641;49.082;8.200;2023-05-07T12:45:36;4.68;;;2.83;;
7199;SDS011;3641;49.082;8.200;2023-05-07T12:48:03;3.33;;;2.75;;
7199;SDS011;3641;49.082;8.200;2023-05-07T12:50:31;5.25;;;2.80;;
7199;SDS011;3641;49.082;8.200;2023-05-07T12:52:58;5.72;;;3.17;;
7199;SDS011;3641;49.082;8.200;2023-05-07T12:55:25;5.03;;;3.13;;
7199;SDS011;3641;49.082;8.200;2023-05-07T12:57:52;5.45;;;3.33;;
7199;SDS011;3641;49.082;8.200;2023-05-07T13:00:33;4.80;;;2.95;;
7199;SDS011;3641;49.082;8.200;2023-05-07T13:03:00;4.65;;;3.47;;
7199;SDS011;3641;49.082;8.200;2023-05-07T13:05:26;6.82;;;2.90;;
7199;SDS011;3641;49.082;8.200;2023-05-07T13:07:53;7.28;;;3.45;;
7199;SDS011;3641;49.082;8.200;2023-05-07T13:10:20;5.07;;;2.80;;
7199;SDS011;3641;49.082;8.200;2023-05-07T13:12:47;3.58;;;2.75;;
7199;SDS011;3641;49.082;8.200;2023-05-07T13:15:14;5.03;;;3.30;;
7199;SDS011;3641;49.082;8.200;2023-05-07T13:17:42;7.55;;;3.53;;
7199;SDS011;3641;49.082;8.200;2023-05-07T13:20:09;7.88;;;3.38;;
7199;SDS011;3641;49.082;8.200;2023-05-07T13:22:36;6.90;;;3.53;;
7199;SDS011;3641;49.082;8.200;2023-05-07T13:25:03;6.72;;;3.10;;
7199;SDS011;3641;49.082;8.200;2023-05-07T13:27:29;6.05;;;3.78;;
7199;SDS011;3641;49.082;8.200;2023-05-07T13:29:56;6.70;;;3.30;;
7199;SDS011;3641;49.082;8.200;2023-05-07T13:32:23;6.57;;;3.60;;
7199;SDS011;3641;49.082;8.200;2023-05-07T13:34:51;6.20;;;3.80;;
7199;SDS011;3641;49.082;8.200;2023-05-07T13:37:17;5.13;;;3.45;;
7199;SDS011;3641;49.082;8.200;2023-05-07T13:39:44;8.15;;;3.40;;
7199;SDS011;3641;49.082;8.200;2023-05-07T13:42:10;6.40;;;3.80;;
7199;SDS011;3641;49.082;8.200;2023-05-07T13:44:37;4.40;;;3.25;;
7199;SDS011;3641;49.082;8.200;2023-05-07T13:47:03;6.47;;;2.92;;
7199;SDS011;3641;49.082;8.200;2023-05-07T13:49:30;9.68;;;4.07;;
7199;SDS011;3641;49.082;8.200;2023-05-07T13:51:58;10.50;;;4.18;;
7199;SDS011;3641;49.082;8.200;2023-05-07T13:54:24;9.10;;;3.47;;
7199;SDS011;3641;49.082;8.200;2023-05-07T13:56:50;16.52;;;5.75;;
7199;SDS011;3641;49.082;8.200;2023-05-07T13:59:17;15.35;;;6.45;;
7199;SDS011;3641;49.082;8.200;2023-05-07T14:01:43;15.88;;;5.88;;
7199;SDS011;3641;49.082;8.200;2023-05-07T14:04:10;10.23;;;5.03;;
7199;SDS011;3641;49.082;8.200;2023-05-07T14:06:36;7.90;;;3.75;;
7199;SDS011;3641;49.082;8.200;2023-05-07T14:09:05;4.82;;;3.20;;
7199;SDS011;3641;49.082;8.200;2023-05-07T14:11:31;5.70;;;3.55;;
7199;SDS011;3641;49.082;8.200;2023-05-07T14:13:58;8.07;;;3.25;;
7199;SDS011;3641;49.082;8.200;2023-05-07T14:16:24;3.42;;;2.33;;
7199;SDS011;3641;49.082;8.200;2023-05-07T14:18:51;5.53;;;3.03;;
7199;SDS011;3641;49.082;8.200;2023-05-07T14:21:17;6.40;;;4.28;;
7199;SDS011;3641;49.082;8.200;2023-05-07T14:23:44;7.88;;;4.07;;
7199;SDS011;3641;49.082;8.200;2023-05-07T14:26:12;7.18;;;3.70;;
7199;SDS011;3641;49.082;8.200;2023-05-07T14:28:38;7.55;;;3.80;;
7199;SDS011;3641;49.082;8.200;2023-05-07T14:31:06;5.03;;;3.40;;
7199;SDS011;3641;49.082;8.200;2023-05-07T14:33:32;5.10;;;3.10;;
7199;SDS011;3641;49.082;8.200;2023-05-07T14:35:59;5.30;;;2.83;;
7199;SDS011;3641;49.082;8.200;2023-05-07T14:38:25;4.57;;;2.03;;
7199;SDS011;3641;49.082;8.200;2023-05-07T14:40:51;5.03;;;2.30;;
7199;SDS011;3641;49.082;8.200;2023-05-07T14:43:22;4.38;;;2.47;;
7199;SDS011;3641;49.082;8.200;2023-05-07T14:45:48;4.72;;;2.53;;
7199;SDS011;3641;49.082;8.200;2023-05-07T14:48:15;3.33;;;2.08;;
7199;SDS011;3641;49.082;8.200;2023-05-07T14:50:41;3.35;;;2.20;;
7199;SDS011;3641;49.082;8.200;2023-05-07T14:53:08;3.80;;;2.53;;
7199;SDS011;3641;49.082;8.200;2023-05-07T14:55:34;6.97;;;2.40;;
7199;SDS011;3641;49.082;8.200;2023-05-07T14:58:01;4.15;;;2.53;;
7199;SDS011;3641;49.082;8.200;2023-05-07T15:00:29;4.47;;;2.40;;
7199;SDS011;3641;49.082;8.200;2023-05-07T15:02:55;5.93;;;2.58;;
7199;SDS011;3641;49.082;8.200;2023-05-07T15:05:28;3.05;;;2.35;;
7199;SDS011;3641;49.082;8.200;2023-05-07T15:07:54;3.78;;;2.72;;
7199;SDS011;3641;49.082;8.200;2023-05-07T15:10:21;5.50;;;2.45;;
7199;SDS011;3641;49.082;8.200;2023-05-07T15:12:47;6.13;;;2.65;;
7199;SDS011;3641;49.082;8.200;2023-05-07T15:15:14;5.50;;;2.28;;
7199;SDS011;3641;49.082;8.200;2023-05-07T15:17:42;7.25;;;2.83;;
7199;SDS011;3641;49.082;8.200;2023-05-07T15:20:08;4.20;;;2.30;;
7199;SDS011;3641;49.082;8.200;2023-05-07T15:22:35;4.65;;;2.72;;
7199;SDS011;3641;49.082;8.200;2023-05-07T15:25:02;4.63;;;2.63;;
7199;SDS011;3641;49.082;8.200;2023-05-07T15:27:29;3.78;;;2.25;;
7199;SDS011;3641;49.082;8.200;2023-05-07T15:29:56;6.15;;;2.40;;